KSUX/SUX METAR and TAF weather

Enter ICAO airport designator
Station Type Date Time Source
KSUX METAR 2019/04/18 21:52 UTC NOAA

KSUX 182152Z 36014KT 10SM SCT021 BKN031 OVC050 10/06 A2993 RMK AO2 PK WND 02026/2101 SLP141 T01000056


Station Type Date Time Source
KSUX Decoded METAR 2019/04/18 21:52 UTC NOAA

SIOUX GATEWAY AIRPORT, IA, United States (KSUX) 42-23N 96-23W 338M
Apr 18, 2019 - 05:52 PM EDT / 2019.04.18 2152 UTC
Wind: from the N (360 degrees) at 16 MPH (14 KT):0
Visibility: 10 mile(s):0
Sky conditions: overcast
Temperature: 50.0 F (10.0 C)
Dew Point: 42.1 F (5.6 C)
Relative Humidity: 74%
Pressure (altimeter): 29.93 in. Hg (1013 hPa)
ob: KSUX 182152Z 36014KT 10SM SCT021 BKN031 OVC050 10/06 A2993 RMK AO2 PK WND 02026/2101 SLP141 T01000056
cycle: 22

Station Type Date Time Source
KSUX TAF 2019/04/18 18:34 UTC NOAA

TAF KSUX 181732Z 1818/1918 34016G23KT P6SM SCT020 OVC035
FM181900 34017G24KT P6SM VCSH SCT025 OVC035
FM190000 35013G19KT P6SM BKN040
FM190200 33007KT P6SM FEW200

Example: see airport list